Latest Weather Observations for Mount Crawford

IDS60801

Issued at 2:01 pm CST Wednesday 8 July 2015 (issued every 30 minutes, with the page automatically refreshed every 10 minutes)

About weather observations | Map of weather stations | Latest weather observations for SA | Other Formats
Station Details ID: 023878 Name: MT CRAWFORD AWS Lat: -34.73 Lon: 138.93 Height: 525.0 m
Data from the previous 72 hours. | See also: Recent months at Mount Crawford
Date/Time
CST
Temp
°C
App
Temp
°C
Dew
Point
Rel
Hum
%
Delta-T
°C
Wind Press
QNH
hPa
Press
MSL
hPa
Rain
since 9 am
mm
Dir
 
Spd
km/h
Gust
km/h
Spd
kts
Gust
kts
08/02:00pm 10.6 5.8 5.6 71 2.4 NNE 20 26 11 14 1021.5 1022.0 0.0
08/01:30pm 11.7 7.4 5.3 65 3.0 N 17 28 9 15 1021.7 1022.2 0.0
08/01:00pm 10.4 6.1 5.2 70 2.4 NNE 17 24 9 13 1022.1 1022.6 0.0
08/12:30pm 11.1 6.4 5.2 67 2.8 N 19 26 10 14 1022.5 1023.0 0.0
08/12:00pm 10.7 7.4 6.5 75 2.0 NNE 13 20 7 11 1022.9 1023.5 0.0
08/11:30am 10.4 7.1 6.5 77 1.9 N 13 17 7 9 1023.5 1024.0 0.0
08/11:00am 9.9 6.8 7.2 83 1.3 N 13 17 7 9 1023.7 1024.2 0.0
08/10:30am 9.7 7.6 8.3 91 0.7 N 9 13 5 7 1023.8 1024.3 0.0
08/10:00am 8.4 6.2 8.0 97 0.2 NNE 9 13 5 7 1024.0 1024.5 0.0
08/09:30am 8.1 5.9 7.8 98 0.1 NNE 9 13 5 7 1023.9 1024.4 0.0
08/09:00am 7.8 5.6 7.7 99 0.0 NNW 9 13 5 7 1023.7 1024.2 0.6
08/08:30am 7.5 5.2 7.4 99 0.0 N 9 15 5 8 1023.6 1024.1 0.6
08/08:00am 7.3 4.9 7.2 99 0.0 NNE 9 11 5 6 1023.4 1023.9 0.6
08/07:30am 7.0 4.6 6.9 99 0.0 NNE 9 11 5 6 1023.2 1023.7 0.6
08/07:00am 6.6 4.5 6.5 99 0.0 NE 7 9 4 5 1022.9 1023.5 0.6
08/06:30am 7.2 4.8 6.8 97 0.2 N 9 13 5 7 1022.6 1023.2 0.6
08/06:00am 7.4 5.3 6.8 96 0.3 NW 7 11 4 6 1022.3 1022.8 0.4
08/05:30am 7.7 5.7 7.0 95 0.3 NW 7 9 4 5 1022.1 1022.6 0.4
08/05:00am 7.4 5.4 7.0 97 0.2 N 7 9 4 5 1022.0 1022.5 0.4
08/04:30am 7.7 5.3 6.8 94 0.4 NW 9 13 5 7 1022.0 1022.5 0.4
08/04:00am 7.4 5.0 7.0 97 0.2 NW 9 11 5 6 1022.0 1022.5 0.4
08/03:30am 7.1 4.7 7.1 100 0.0 WSW 9 9 5 5 1021.9 1022.4 0.4
08/03:00am 7.0 5.0 7.0 100 0.0 WSW 7 9 4 5 1022.0 1022.5 0.4
08/02:30am 7.3 5.0 7.3 100 0.0 WNW 9 11 5 6 1022.2 1022.7 0.4
08/02:00am 7.1 4.7 7.1 100 0.0 NNW 9 11 5 6 1022.2 1022.7 0.4
08/01:30am 6.7 4.2 6.7 100 0.0 NW 9 11 5 6 1022.2 1022.7 0.4
08/01:00am 7.0 4.6 7.0 100 0.0 W 9 11 5 6 1022.3 1022.8 0.4
08/12:30am 7.4 4.7 7.4 100 0.0 WNW 11 15 6 8 1022.5 1023.0 0.4
08/12:00am 7.8 5.2 7.8 100 0.0 NW 11 15 6 8 1022.8 1023.4 0.4
 
Date/Time
CST
Temp
°C
App
Temp
°C
Dew
Point
Rel
Hum
%
Delta-T
°C
Wind Press
QNH
hPa
Press
MSL
hPa
Rain
since 9 am
mm
Dir
 
Spd
km/h
Gust
km/h
Spd
kts
Gust
kts
07/11:30pm 7.8 5.2 7.8 100 0.0 WNW 11 15 6 8 1022.8 1023.4 0.4
07/11:00pm 7.8 4.4 7.8 100 0.0 W 15 20 8 11 1022.8 1023.4 0.4
07/10:30pm 7.9 5.7 7.9 100 0.0 W 9 13 5 7 1022.7 1023.3 0.4
07/10:00pm 7.8 5.6 7.8 100 0.0 W 9 13 5 7 1022.7 1023.3 0.4
07/09:30pm 7.8 5.2 7.8 100 0.0 W 11 15 6 8 1022.7 1023.3 0.4
07/09:00pm 7.7 4.3 7.7 100 0.0 W 15 19 8 10 1022.6 1023.2 0.4
07/08:30pm 7.7 5.5 7.7 100 0.0 WSW 9 13 5 7 1022.4 1022.9 0.4
07/08:00pm 7.6 5.3 7.6 100 0.0 SW 9 13 5 7 1022.2 1022.7 0.4
07/07:30pm 8.0 5.1 8.0 100 0.0 WSW 13 17 7 9 1022.0 1022.5 0.4
07/07:00pm 7.8 5.2 7.8 100 0.0 WSW 11 15 6 8 1021.9 1022.4 0.2
07/06:30pm 7.9 4.9 7.9 100 0.0 WSW 13 15 7 8 1021.6 1022.1 0.2
07/06:00pm 8.2 4.9 8.2 100 0.0 W 15 17 8 9 1021.5 1022.0 0.2
07/05:30pm 8.5 5.3 8.5 100 0.0 W 15 22 8 12 1021.3 1021.8 0.2
07/05:00pm 9.2 5.4 9.2 100 0.0 W 19 24 10 13 1021.0 1021.6 0.2
07/04:30pm 10.0 7.2 10.0 100 0.0 W 15 20 8 11 1020.9 1021.5 0.2
07/04:00pm 9.7 6.4 9.7 100 0.0 W 17 22 9 12 1020.8 1021.3 0.2
07/03:30pm 9.8 6.6 9.8 100 0.0 W 17 24 9 13 1020.6 1021.1 0.2
07/03:00pm 9.8 6.2 9.8 100 0.0 W 19 26 10 14 1020.5 1021.0 0.2
07/02:30pm 9.8 6.2 9.8 100 0.0 W 19 24 10 13 1020.5 1021.0 0.2
07/02:00pm 9.8 6.6 9.8 100 0.0 W 17 22 9 12 1020.4 1020.9 0.2
07/01:30pm 9.4 6.1 9.4 100 0.0 W 17 22 9 12 1020.5 1021.0 0.2
07/01:00pm 9.2 5.4 9.2 100 0.0 W 19 28 10 15 1020.7 1021.2 0.2
07/12:30pm 9.4 5.7 9.4 100 0.0 W 19 26 10 14 1020.9 1021.5 0.2
07/12:00pm 9.4 5.7 9.4 100 0.0 W 19 26 10 14 1021.2 1021.7 0.2
07/11:30am 9.1 5.7 9.1 100 0.0 W 17 24 9 13 1021.4 1021.9 0.2
07/11:00am 8.9 4.9 8.9 100 0.0 W 20 26 11 14 1021.4 1021.9 0.2
07/10:30am 8.5 4.4 8.5 100 0.0 W 20 30 11 16 1021.4 1021.9 0.2
07/10:00am 8.3 4.1 8.3 100 0.0 W 20 26 11 14 1021.4 1021.9 0.2
07/09:30am 8.3 4.3 8.3 100 0.0 W 19 28 10 15 1021.0 1021.6 0.2
07/09:00am 8.3 3.7 8.3 100 0.0 W 22 30 12 16 1020.7 1021.2 8.8
07/08:30am 8.1 3.1 8.1 100 0.0 W 24 35 13 19 1020.5 1021.0 8.8
07/08:00am 8.2 4.2 8.2 100 0.0 W 19 28 10 15 1020.3 1020.8 8.4
07/07:30am 8.1 3.9 8.1 100 0.0 W 20 32 11 17 1020.0 1020.5 8.0
07/07:00am 8.1 3.5 8.1 100 0.0 W 22 39 12 21 1019.8 1020.3 8.0
07/06:30am 8.1 3.9 8.1 100 0.0 W 20 30 11 16 1019.5 1020.0 7.8
07/06:00am 8.1 3.1 8.1 100 0.0 W 24 35 13 19 1019.0 1019.5 7.4
07/05:30am 8.0 3.0 8.0 100 0.0 W 24 33 13 18 1018.7 1019.2 7.2
07/05:00am 8.0 3.0 8.0 100 0.0 W 24 32 13 17 1018.5 1019.0 6.8
07/04:30am 8.0 3.4 8.0 100 0.0 W 22 32 12 17 1018.5 1019.0 6.6
07/04:00am 7.8 3.5 7.8 100 0.0 W 20 26 11 14 1018.6 1019.1 6.4
07/03:30am 8.0 3.7 8.0 100 0.0 W 20 30 11 16 1018.5 1019.0 6.4
07/03:00am 8.0 3.7 8.0 100 0.0 WSW 20 32 11 17 1018.6 1019.1 6.2
07/02:30am 8.2 3.6 8.2 100 0.0 WSW 22 35 12 19 1018.6 1019.1 6.0
07/02:00am 8.2 4.0 8.2 100 0.0 WSW 20 35 11 19 1018.4 1018.9 5.6
07/01:30am 8.3 3.7 8.3 100 0.0 W 22 28 12 15 1018.3 1018.8 5.4
07/01:00am 8.2 3.6 8.2 100 0.0 W 22 33 12 18 1018.3 1018.8 5.0
07/12:30am 8.2 3.6 8.2 100 0.0 W 22 32 12 17 1018.2 1018.7 4.8
07/12:00am 8.1 3.5 8.1 100 0.0 W 22 32 12 17 1018.4 1018.9 4.6
 
Date/Time
CST
Temp
°C
App
Temp
°C
Dew
Point
Rel
Hum
%
Delta-T
°C
Wind Press
QNH
hPa
Press
MSL
hPa
Rain
since 9 am
mm
Dir
 
Spd
km/h
Gust
km/h
Spd
kts
Gust
kts
06/11:30pm 8.2 3.2 8.2 100 0.0 W 24 39 13 21 1018.4 1018.9 4.4
06/11:00pm 8.2 2.1 8.2 100 0.0 W 30 39 16 21 1018.3 1018.8 4.0
06/10:30pm 8.3 3.7 8.3 100 0.0 W 22 32 12 17 1018.4 1018.9 4.0
06/10:07pm 8.4 2.7 8.4 100 0.0 W 28 46 15 25 1018.3 1018.8 3.8
06/10:00pm 8.3 3.7 8.3 100 0.0 W 22 39 12 21 1018.3 1018.8 3.6
06/09:30pm 8.4 3.5 8.4 100 0.0 W 24 35 13 19 1018.2 1018.7 1.6
06/09:00pm 8.4 3.1 8.4 100 0.0 W 26 37 14 20 1017.7 1018.1 1.4
06/08:30pm 8.4 2.7 8.4 100 0.0 W 28 41 15 22 1017.6 1018.0 0.6
06/08:00pm 8.4 2.7 8.4 100 0.0 W 28 39 15 21 1017.3 1017.7 0.4
06/07:30pm 8.3 3.4 8.3 100 0.0 W 24 35 13 19 1017.3 1017.7 0.4
06/07:00pm 8.2 2.1 8.2 100 0.0 WSW 30 44 16 24 1017.2 1017.6 0.4
06/06:51pm 8.2 2.5 8.2 100 0.0 W 28 46 15 25 1016.8 1017.3 0.4
06/06:30pm 8.2 3.6 8.2 100 0.0 W 22 33 12 18 1016.7 1017.2 0.4
06/06:00pm 8.2 3.6 8.2 100 0.0 W 22 32 12 17 1016.7 1017.2 0.4
06/05:30pm 8.2 2.5 8.2 100 0.0 W 28 41 15 22 1016.4 1016.9 0.4
06/05:15pm 8.3 2.2 8.3 100 0.0 W 30 50 16 27 1015.9 1016.3 0.4
06/05:00pm 8.5 3.6 8.5 100 0.0 W 24 39 13 21 1016.0 1016.4 0.2
06/04:30pm 8.3 3.0 8.3 100 0.0 W 26 43 14 23 1015.6 1016.0 0.2
06/04:00pm 8.5 2.8 8.5 100 0.0 W 28 41 15 22 1015.7 1016.1 0.2
06/03:30pm 8.9 4.1 8.8 99 0.1 W 24 35 13 19 1015.5 1015.9 0.0
06/03:00pm 10.2 3.7 8.1 87 1.0 W 32 43 17 23 1015.2 1015.6 0.0
06/02:30pm 10.0 3.4 7.6 85 1.2 W 32 43 17 23 1015.1 1015.5 0.0
06/02:13pm 10.8 5.0 8.0 83 1.4 W 28 46 15 25 1015.2 1015.6 0.0
06/02:00pm 10.4 4.9 7.5 82 1.4 W 26 41 14 22 1015.1 1015.5 0.0
06/01:30pm 9.9 3.1 7.8 87 1.0 W 33 48 18 26 1015.3 1015.7 0.0
06/01:00pm 9.7 3.0 8.0 89 0.8 W 33 44 18 24 1015.4 1015.8 0.0
06/12:30pm 9.8 3.4 8.6 92 0.6 W 32 46 17 25 1015.4 1015.8 0.0
06/12:00pm 10.0 2.9 9.4 96 0.3 W 37 46 20 25 1015.7 1016.1 0.0
06/11:30am 9.3 4.6 9.3 100 0.0 W 24 33 13 18 1015.9 1016.3 0.0
06/11:00am 8.9 3.3 8.9 100 0.0 W 28 39 15 21 1016.1 1016.6 0.0
06/10:30am 8.5 3.6 8.5 100 0.0 W 24 35 13 19 1016.2 1016.7 0.0
06/10:00am 7.8 2.7 7.8 100 0.0 WNW 24 30 13 16 1016.1 1016.6 0.0
06/09:30am 7.3 2.5 7.3 100 0.0 W 22 32 12 17 1015.9 1016.3 0.0
06/09:00am 6.9 2.4 6.9 100 0.0 WNW 20 32 11 17 1015.5 1015.9 3.6
06/08:30am 6.6 2.0 6.5 99 0.0 WNW 20 26 11 14 1015.2 1015.6 3.6
06/08:00am 6.6 2.2 6.5 99 0.0 W 19 24 10 13 1014.9 1015.4 3.6
06/07:30am 6.5 2.1 6.4 99 0.0 WNW 19 28 10 15 1014.6 1015.1 3.6
06/07:00am 6.7 2.3 6.6 99 0.0 WNW 19 30 10 16 1014.7 1015.2 3.4
06/06:30am 6.9 2.2 6.2 95 0.3 NW 20 32 11 17 1014.6 1015.1 2.2
06/06:00am 6.9 2.3 5.7 92 0.6 SSW 19 26 10 14 1015.2 1015.6 0.6
06/05:30am 7.4 2.5 5.0 85 1.1 NW 20 30 11 16 1014.3 1014.7 0.4
06/05:00am 7.3 3.0 5.4 88 0.9 NW 17 24 9 13 1014.5 1015.0 0.4
06/04:30am 7.5 3.2 5.3 86 1.0 NW 17 30 9 16 1014.6 1015.1 0.4
06/04:00am 8.1 3.2 5.0 81 1.4 WNW 20 32 11 17 1014.9 1015.4 0.2
06/03:30am 7.9 2.9 4.8 81 1.4 WNW 20 32 11 17 1015.2 1015.6 0.2
06/03:00am 8.4 3.4 4.4 76 1.8 NW 20 30 11 16 1014.9 1015.4 0.0
06/02:30am 8.3 3.3 4.7 78 1.6 NNW 20 28 11 15 1014.9 1015.4 0.0
06/02:00am 8.9 3.7 3.7 70 2.3 NNW 20 28 11 15 1015.1 1015.5 0.0
06/01:30am 9.1 3.5 3.7 69 2.4 NNW 22 35 12 19 1015.2 1015.6 0.0
06/01:00am 9.1 2.8 3.5 68 2.5 NNW 26 35 14 19 1015.2 1015.6 0.0
06/12:30am 9.2 3.6 3.6 68 2.5 NNW 22 33 12 18 1015.7 1016.1 0.0
06/12:00am 9.4 3.5 3.8 68 2.5 NNW 24 32 13 17 1016.1 1016.6 0.0
 
Date/Time
CST
Temp
°C
App
Temp
°C
Dew
Point
Rel
Hum
%
Delta-T
°C
Wind Press
QNH
hPa
Press
MSL
hPa
Rain
since 9 am
mm
Dir
 
Spd
km/h
Gust
km/h
Spd
kts
Gust
kts
05/11:30pm 9.7 3.8 3.7 66 2.7 NNW 24 37 13 20 1016.3 1016.8 0.0
05/11:00pm 9.5 4.0 4.1 69 2.5 NNW 22 32 12 17 1016.5 1017.0 0.0
05/10:30pm 9.3 4.2 4.3 71 2.3 NNW 20 28 11 15 1016.7 1017.2 0.0
05/10:00pm 9.2 4.2 4.8 74 2.0 NNW 20 28 11 15 1016.9 1017.4 0.0
05/09:30pm 9.8 4.3 4.2 68 2.6 NNW 22 32 12 17 1017.1 1017.5 0.0
05/09:00pm 9.8 4.7 4.0 67 2.6 NNW 20 28 11 15 1017.1 1017.5 0.0
05/08:30pm 9.5 4.4 4.1 69 2.4 NNW 20 28 11 15 1016.9 1017.4 0.0
05/08:00pm 9.4 4.5 4.0 69 2.4 NNW 19 26 10 14 1016.9 1017.4 0.0
05/07:30pm 9.3 4.4 4.1 70 2.4 NNW 19 24 10 13 1017.1 1017.5 0.0
05/07:00pm 9.1 5.0 4.1 71 2.3 N 15 20 8 11 1017.1 1017.5 0.0
05/06:30pm 9.4 5.3 4.2 70 2.4 N 15 22 8 12 1016.9 1017.4 0.0
05/06:00pm 10.2 5.2 3.7 64 2.9 NNW 19 26 10 14 1016.8 1017.3 0.0
05/05:30pm 10.4 6.2 3.9 64 3.0 NW 15 20 8 11 1016.9 1017.4 0.0
05/05:00pm 11.2 6.6 3.5 59 3.5 NW 17 24 9 13 1016.8 1017.3 0.0
05/04:30pm 12.0 7.6 4.5 60 3.5 NW 17 26 9 14 1016.9 1017.4 0.0
05/04:00pm 12.3 7.3 4.5 59 3.7 WNW 20 26 11 14 1016.9 1017.4 0.0
05/03:30pm 12.4 7.0 4.6 59 3.7 WNW 22 33 12 18 1016.9 1017.4 0.0
05/03:00pm 12.7 7.4 5.1 60 3.6 WNW 22 32 12 17 1017.2 1017.6 0.0
05/02:30pm 12.5 6.9 5.2 61 3.5 WNW 24 39 13 21 1017.3 1017.7 0.0

Other Formats:

Comma delimited format used in spreadsheet applications
http://www.bom.gov.au/fwo/IDS60801/IDS60801.94678.axf

JavaScript Object Notation format (JSON) in row-major order
http://www.bom.gov.au/fwo/IDS60801/IDS60801.94678.json